sensor_id;sensor_type;location;lat;lon;timestamp;P1;durP1;ratioP1;P2;durP2;ratioP2
44885;SDS011;36669;51.428;21.162;2022-10-16T00:00:17;33.88;;;19.85;;
44885;SDS011;36669;51.428;21.162;2022-10-16T00:02:44;32.42;;;20.27;;
44885;SDS011;36669;51.428;21.162;2022-10-16T00:05:10;33.35;;;20.42;;
44885;SDS011;36669;51.428;21.162;2022-10-16T00:07:35;31.92;;;19.23;;
44885;SDS011;36669;51.428;21.162;2022-10-16T00:10:01;29.83;;;19.90;;
44885;SDS011;36669;51.428;21.162;2022-10-16T00:12:26;34.20;;;20.20;;
44885;SDS011;36669;51.428;21.162;2022-10-16T00:14:52;32.25;;;20.77;;
44885;SDS011;36669;51.428;21.162;2022-10-16T00:17:17;32.95;;;20.30;;
44885;SDS011;36669;51.428;21.162;2022-10-16T00:19:43;28.48;;;18.83;;
44885;SDS011;36669;51.428;21.162;2022-10-16T00:22:08;32.78;;;18.77;;
44885;SDS011;36669;51.428;21.162;2022-10-16T00:24:36;31.52;;;19.10;;
44885;SDS011;36669;51.428;21.162;2022-10-16T00:27:03;29.20;;;18.83;;
44885;SDS011;36669;51.428;21.162;2022-10-16T00:29:28;31.65;;;18.45;;
44885;SDS011;36669;51.428;21.162;2022-10-16T00:31:54;31.33;;;18.92;;
44885;SDS011;36669;51.428;21.162;2022-10-16T00:34:19;30.42;;;19.08;;
44885;SDS011;36669;51.428;21.162;2022-10-16T00:36:45;29.88;;;18.52;;
44885;SDS011;36669;51.428;21.162;2022-10-16T00:39:10;30.67;;;17.80;;
44885;SDS011;36669;51.428;21.162;2022-10-16T00:41:36;28.17;;;17.45;;
44885;SDS011;36669;51.428;21.162;2022-10-16T00:44:02;29.20;;;19.30;;
44885;SDS011;36669;51.428;21.162;2022-10-16T00:46:48;26.42;;;17.80;;
44885;SDS011;36669;51.428;21.162;2022-10-16T00:49:15;25.77;;;17.65;;
44885;SDS011;36669;51.428;21.162;2022-10-16T00:51:45;28.15;;;17.70;;
44885;SDS011;36669;51.428;21.162;2022-10-16T00:54:16;24.65;;;16.42;;
44885;SDS011;36669;51.428;21.162;2022-10-16T00:56:46;30.30;;;16.65;;
44885;SDS011;36669;51.428;21.162;2022-10-16T00:59:16;28.40;;;18.75;;
44885;SDS011;36669;51.428;21.162;2022-10-16T01:01:48;26.63;;;15.88;;
44885;SDS011;36669;51.428;21.162;2022-10-16T01:04:14;26.45;;;16.95;;
44885;SDS011;36669;51.428;21.162;2022-10-16T01:09:32;25.38;;;16.88;;
44885;SDS011;36669;51.428;21.162;2022-10-16T01:28:51;26.17;;;16.77;;
44885;SDS011;36669;51.428;21.162;2022-10-16T01:31:27;25.58;;;17.10;;
44885;SDS011;36669;51.428;21.162;2022-10-16T01:33:59;29.33;;;16.88;;
44885;SDS011;36669;51.428;21.162;2022-10-16T01:36:39;25.75;;;16.00;;
44885;SDS011;36669;51.428;21.162;2022-10-16T01:39:19;31.48;;;17.58;;
44885;SDS011;36669;51.428;21.162;2022-10-16T01:41:48;27.88;;;17.35;;
44885;SDS011;36669;51.428;21.162;2022-10-16T01:44:20;28.58;;;16.77;;
44885;SDS011;36669;51.428;21.162;2022-10-16T01:46:50;29.23;;;18.58;;
44885;SDS011;36669;51.428;21.162;2022-10-16T01:49:17;27.10;;;17.25;;
44885;SDS011;36669;51.428;21.162;2022-10-16T01:51:45;30.88;;;17.30;;
44885;SDS011;36669;51.428;21.162;2022-10-16T01:54:14;25.63;;;16.40;;
44885;SDS011;36669;51.428;21.162;2022-10-16T01:56:43;24.25;;;15.43;;
44885;SDS011;36669;51.428;21.162;2022-10-16T01:59:11;25.77;;;15.32;;
44885;SDS011;36669;51.428;21.162;2022-10-16T02:01:40;28.70;;;16.30;;
44885;SDS011;36669;51.428;21.162;2022-10-16T02:04:15;23.70;;;15.57;;
44885;SDS011;36669;51.428;21.162;2022-10-16T02:06:48;24.23;;;15.85;;
44885;SDS011;36669;51.428;21.162;2022-10-16T02:09:14;29.23;;;16.02;;
44885;SDS011;36669;51.428;21.162;2022-10-16T02:11:40;27.33;;;15.23;;
44885;SDS011;36669;51.428;21.162;2022-10-16T02:14:06;26.10;;;16.67;;
44885;SDS011;36669;51.428;21.162;2022-10-16T02:16:33;27.75;;;15.90;;
44885;SDS011;36669;51.428;21.162;2022-10-16T02:19:06;27.40;;;15.85;;
44885;SDS011;36669;51.428;21.162;2022-10-16T02:21:36;27.63;;;16.38;;
44885;SDS011;36669;51.428;21.162;2022-10-16T02:24:11;29.42;;;15.23;;
44885;SDS011;36669;51.428;21.162;2022-10-16T02:27:10;23.67;;;15.77;;
44885;SDS011;36669;51.428;21.162;2022-10-16T02:29:44;22.25;;;14.48;;
44885;SDS011;36669;51.428;21.162;2022-10-16T02:32:15;25.48;;;15.07;;
44885;SDS011;36669;51.428;21.162;2022-10-16T02:34:44;24.85;;;14.77;;
44885;SDS011;36669;51.428;21.162;2022-10-16T02:37:11;24.10;;;15.07;;
44885;SDS011;36669;51.428;21.162;2022-10-16T02:39:37;21.70;;;15.77;;
44885;SDS011;36669;51.428;21.162;2022-10-16T02:42:09;27.27;;;15.82;;
44885;SDS011;36669;51.428;21.162;2022-10-16T02:44:38;22.83;;;14.50;;
44885;SDS011;36669;51.428;21.162;2022-10-16T02:47:05;24.20;;;15.40;;
44885;SDS011;36669;51.428;21.162;2022-10-16T02:49:31;24.00;;;14.68;;
44885;SDS011;36669;51.428;21.162;2022-10-16T02:51:57;27.17;;;14.90;;
44885;SDS011;36669;51.428;21.162;2022-10-16T02:54:22;21.70;;;14.20;;
44885;SDS011;36669;51.428;21.162;2022-10-16T02:56:48;27.30;;;15.27;;
44885;SDS011;36669;51.428;21.162;2022-10-16T02:59:13;23.30;;;14.57;;
44885;SDS011;36669;51.428;21.162;2022-10-16T03:01:39;24.85;;;14.18;;
44885;SDS011;36669;51.428;21.162;2022-10-16T03:04:04;26.38;;;14.20;;
44885;SDS011;36669;51.428;21.162;2022-10-16T03:06:30;20.55;;;14.13;;
44885;SDS011;36669;51.428;21.162;2022-10-16T03:08:55;21.42;;;13.80;;
44885;SDS011;36669;51.428;21.162;2022-10-16T03:11:21;21.33;;;12.65;;
44885;SDS011;36669;51.428;21.162;2022-10-16T03:13:46;21.58;;;13.57;;
44885;SDS011;36669;51.428;21.162;2022-10-16T03:16:13;23.08;;;13.68;;
44885;SDS011;36669;51.428;21.162;2022-10-16T03:18:38;21.48;;;13.30;;
44885;SDS011;36669;51.428;21.162;2022-10-16T03:21:04;20.85;;;12.43;;
44885;SDS011;36669;51.428;21.162;2022-10-16T03:23:29;18.10;;;12.00;;
44885;SDS011;36669;51.428;21.162;2022-10-16T03:25:55;17.45;;;12.63;;
44885;SDS011;36669;51.428;21.162;2022-10-16T03:28:21;18.85;;;12.98;;
44885;SDS011;36669;51.428;21.162;2022-10-16T03:30:46;19.40;;;12.77;;
44885;SDS011;36669;51.428;21.162;2022-10-16T03:33:12;18.27;;;12.75;;
44885;SDS011;36669;51.428;21.162;2022-10-16T03:35:37;19.40;;;13.10;;
44885;SDS011;36669;51.428;21.162;2022-10-16T03:38:04;22.83;;;12.40;;
44885;SDS011;36669;51.428;21.162;2022-10-16T03:40:29;19.00;;;12.50;;
44885;SDS011;36669;51.428;21.162;2022-10-16T03:42:56;19.58;;;12.80;;
44885;SDS011;36669;51.428;21.162;2022-10-16T03:45:21;23.17;;;13.07;;
44885;SDS011;36669;51.428;21.162;2022-10-16T03:47:47;19.50;;;12.63;;
44885;SDS011;36669;51.428;21.162;2022-10-16T03:50:12;19.60;;;12.77;;
44885;SDS011;36669;51.428;21.162;2022-10-16T03:52:38;23.08;;;13.20;;
44885;SDS011;36669;51.428;21.162;2022-10-16T03:55:03;18.67;;;12.40;;
44885;SDS011;36669;51.428;21.162;2022-10-16T03:57:29;17.58;;;12.20;;
44885;SDS011;36669;51.428;21.162;2022-10-16T03:59:55;20.17;;;12.73;;
44885;SDS011;36669;51.428;21.162;2022-10-16T04:02:20;22.10;;;13.32;;
44885;SDS011;36669;51.428;21.162;2022-10-16T04:04:47;17.38;;;12.20;;
44885;SDS011;36669;51.428;21.162;2022-10-16T04:07:12;16.88;;;12.07;;
44885;SDS011;36669;51.428;21.162;2022-10-16T04:09:38;23.52;;;12.48;;
44885;SDS011;36669;51.428;21.162;2022-10-16T04:12:04;21.20;;;12.40;;
44885;SDS011;36669;51.428;21.162;2022-10-16T04:14:29;17.35;;;11.90;;
44885;SDS011;36669;51.428;21.162;2022-10-16T04:16:55;18.40;;;11.43;;
44885;SDS011;36669;51.428;21.162;2022-10-16T04:19:20;21.38;;;11.82;;
44885;SDS011;36669;51.428;21.162;2022-10-16T04:21:45;20.90;;;12.25;;
44885;SDS011;36669;51.428;21.162;2022-10-16T04:24:11;22.33;;;12.30;;
44885;SDS011;36669;51.428;21.162;2022-10-16T04:26:37;16.75;;;11.75;;
44885;SDS011;36669;51.428;21.162;2022-10-16T04:29:02;23.13;;;12.98;;
44885;SDS011;36669;51.428;21.162;2022-10-16T04:31:28;20.67;;;12.70;;
44885;SDS011;36669;51.428;21.162;2022-10-16T04:33:53;20.45;;;12.63;;
44885;SDS011;36669;51.428;21.162;2022-10-16T04:36:19;18.55;;;11.57;;
44885;SDS011;36669;51.428;21.162;2022-10-16T04:38:44;19.20;;;12.40;;
44885;SDS011;36669;51.428;21.162;2022-10-16T04:41:10;29.63;;;13.25;;
44885;SDS011;36669;51.428;21.162;2022-10-16T04:43:35;21.45;;;12.68;;
44885;SDS011;36669;51.428;21.162;2022-10-16T04:46:01;17.52;;;12.15;;
44885;SDS011;36669;51.428;21.162;2022-10-16T04:48:26;18.20;;;12.25;;
44885;SDS011;36669;51.428;21.162;2022-10-16T04:50:52;23.67;;;13.68;;
44885;SDS011;36669;51.428;21.162;2022-10-16T04:53:19;21.58;;;12.50;;
44885;SDS011;36669;51.428;21.162;2022-10-16T04:55:44;22.17;;;12.90;;
44885;SDS011;36669;51.428;21.162;2022-10-16T04:58:11;18.17;;;12.40;;
44885;SDS011;36669;51.428;21.162;2022-10-16T05:00:37;20.55;;;13.48;;
44885;SDS011;36669;51.428;21.162;2022-10-16T05:03:02;22.00;;;13.40;;
44885;SDS011;36669;51.428;21.162;2022-10-16T05:05:28;21.20;;;13.50;;
44885;SDS011;36669;51.428;21.162;2022-10-16T05:07:53;21.48;;;13.40;;
44885;SDS011;36669;51.428;21.162;2022-10-16T05:10:19;20.10;;;14.20;;
44885;SDS011;36669;51.428;21.162;2022-10-16T05:12:44;19.25;;;13.32;;
44885;SDS011;36669;51.428;21.162;2022-10-16T05:15:11;23.38;;;14.00;;
44885;SDS011;36669;51.428;21.162;2022-10-16T05:17:36;22.08;;;14.52;;
44885;SDS011;36669;51.428;21.162;2022-10-16T05:20:02;23.38;;;13.63;;
44885;SDS011;36669;51.428;21.162;2022-10-16T05:22:28;20.02;;;13.25;;
44885;SDS011;36669;51.428;21.162;2022-10-16T05:24:54;22.55;;;15.07;;
44885;SDS011;36669;51.428;21.162;2022-10-16T05:27:19;21.20;;;14.93;;
44885;SDS011;36669;51.428;21.162;2022-10-16T05:29:45;26.13;;;14.93;;
44885;SDS011;36669;51.428;21.162;2022-10-16T05:32:12;20.00;;;14.30;;
44885;SDS011;36669;51.428;21.162;2022-10-16T05:34:41;26.65;;;15.55;;
44885;SDS011;36669;51.428;21.162;2022-10-16T05:37:07;22.60;;;14.68;;
44885;SDS011;36669;51.428;21.162;2022-10-16T05:39:32;25.30;;;14.60;;
44885;SDS011;36669;51.428;21.162;2022-10-16T05:41:58;20.13;;;14.40;;
44885;SDS011;36669;51.428;21.162;2022-10-16T05:44:23;22.25;;;14.75;;
44885;SDS011;36669;51.428;21.162;2022-10-16T05:46:49;23.38;;;15.60;;
44885;SDS011;36669;51.428;21.162;2022-10-16T05:49:14;23.23;;;15.20;;
44885;SDS011;36669;51.428;21.162;2022-10-16T05:51:40;22.70;;;14.85;;
44885;SDS011;36669;51.428;21.162;2022-10-16T05:54:05;19.98;;;14.43;;
44885;SDS011;36669;51.428;21.162;2022-10-16T05:56:31;21.42;;;14.45;;
44885;SDS011;36669;51.428;21.162;2022-10-16T05:58:57;19.73;;;13.82;;
44885;SDS011;36669;51.428;21.162;2022-10-16T06:01:22;19.95;;;14.15;;
44885;SDS011;36669;51.428;21.162;2022-10-16T06:03:48;18.23;;;13.65;;
44885;SDS011;36669;51.428;21.162;2022-10-16T06:06:20;25.05;;;16.05;;
44885;SDS011;36669;51.428;21.162;2022-10-16T06:08:47;26.23;;;15.27;;
44885;SDS011;36669;51.428;21.162;2022-10-16T06:11:15;22.40;;;13.98;;
44885;SDS011;36669;51.428;21.162;2022-10-16T06:13:43;24.05;;;14.10;;
44885;SDS011;36669;51.428;21.162;2022-10-16T06:16:09;26.50;;;14.57;;
44885;SDS011;36669;51.428;21.162;2022-10-16T06:18:35;23.15;;;14.40;;
44885;SDS011;36669;51.428;21.162;2022-10-16T06:21:06;20.33;;;13.75;;
44885;SDS011;36669;51.428;21.162;2022-10-16T06:23:42;22.20;;;14.45;;
44885;SDS011;36669;51.428;21.162;2022-10-16T06:26:08;20.70;;;13.57;;
44885;SDS011;36669;51.428;21.162;2022-10-16T06:28:36;19.27;;;13.25;;
44885;SDS011;36669;51.428;21.162;2022-10-16T06:31:02;23.65;;;13.60;;
44885;SDS011;36669;51.428;21.162;2022-10-16T06:33:29;19.92;;;13.05;;
44885;SDS011;36669;51.428;21.162;2022-10-16T06:35:59;22.45;;;13.73;;
44885;SDS011;36669;51.428;21.162;2022-10-16T06:38:29;22.40;;;12.63;;
44885;SDS011;36669;51.428;21.162;2022-10-16T06:40:55;20.50;;;13.50;;
44885;SDS011;36669;51.428;21.162;2022-10-16T06:43:21;23.83;;;13.23;;
44885;SDS011;36669;51.428;21.162;2022-10-16T06:45:51;19.23;;;12.82;;
44885;SDS011;36669;51.428;21.162;2022-10-16T06:48:17;21.90;;;12.27;;
44885;SDS011;36669;51.428;21.162;2022-10-16T06:50:42;21.63;;;12.70;;
44885;SDS011;36669;51.428;21.162;2022-10-16T06:53:08;20.23;;;12.50;;
44885;SDS011;36669;51.428;21.162;2022-10-16T06:55:33;19.00;;;12.73;;
44885;SDS011;36669;51.428;21.162;2022-10-16T06:57:59;20.45;;;12.32;;
44885;SDS011;36669;51.428;21.162;2022-10-16T07:00:24;20.00;;;12.65;;
44885;SDS011;36669;51.428;21.162;2022-10-16T07:02:50;22.77;;;12.18;;
44885;SDS011;36669;51.428;21.162;2022-10-16T07:05:15;25.77;;;13.70;;
44885;SDS011;36669;51.428;21.162;2022-10-16T07:07:41;21.80;;;11.48;;
44885;SDS011;36669;51.428;21.162;2022-10-16T07:10:06;21.02;;;12.48;;
44885;SDS011;36669;51.428;21.162;2022-10-16T07:12:32;17.48;;;11.85;;
44885;SDS011;36669;51.428;21.162;2022-10-16T07:14:58;14.30;;;10.57;;
44885;SDS011;36669;51.428;21.162;2022-10-16T07:17:23;16.60;;;11.40;;
44885;SDS011;36669;51.428;21.162;2022-10-16T07:19:48;11.98;;;9.30;;
44885;SDS011;36669;51.428;21.162;2022-10-16T07:22:14;12.77;;;9.88;;
44885;SDS011;36669;51.428;21.162;2022-10-16T07:24:39;14.23;;;9.70;;
44885;SDS011;36669;51.428;21.162;2022-10-16T07:27:05;11.95;;;9.07;;
44885;SDS011;36669;51.428;21.162;2022-10-16T07:29:30;14.73;;;9.07;;
44885;SDS011;36669;51.428;21.162;2022-10-16T07:31:56;17.15;;;9.75;;
44885;SDS011;36669;51.428;21.162;2022-10-16T07:34:22;15.65;;;9.27;;
44885;SDS011;36669;51.428;21.162;2022-10-16T07:36:48;12.32;;;9.27;;
44885;SDS011;36669;51.428;21.162;2022-10-16T07:39:14;14.20;;;9.90;;
44885;SDS011;36669;51.428;21.162;2022-10-16T07:41:39;17.83;;;8.90;;
44885;SDS011;36669;51.428;21.162;2022-10-16T07:44:05;13.35;;;9.10;;
44885;SDS011;36669;51.428;21.162;2022-10-16T07:46:30;12.70;;;9.10;;
44885;SDS011;36669;51.428;21.162;2022-10-16T07:48:56;16.02;;;8.98;;
44885;SDS011;36669;51.428;21.162;2022-10-16T07:51:22;12.90;;;8.63;;
44885;SDS011;36669;51.428;21.162;2022-10-16T07:53:49;16.45;;;8.35;;
44885;SDS011;36669;51.428;21.162;2022-10-16T07:56:15;14.48;;;9.60;;
44885;SDS011;36669;51.428;21.162;2022-10-16T07:58:41;15.18;;;9.43;;
44885;SDS011;36669;51.428;21.162;2022-10-16T08:01:09;13.20;;;9.05;;
44885;SDS011;36669;51.428;21.162;2022-10-16T08:03:36;11.48;;;8.50;;
44885;SDS011;36669;51.428;21.162;2022-10-16T08:06:02;17.40;;;9.20;;
44885;SDS011;36669;51.428;21.162;2022-10-16T08:08:29;16.10;;;9.48;;
44885;SDS011;36669;51.428;21.162;2022-10-16T08:10:55;14.30;;;9.57;;
44885;SDS011;36669;51.428;21.162;2022-10-16T08:13:21;15.65;;;9.18;;
44885;SDS011;36669;51.428;21.162;2022-10-16T08:15:46;15.40;;;8.60;;
44885;SDS011;36669;51.428;21.162;2022-10-16T08:18:12;13.35;;;9.45;;
44885;SDS011;36669;51.428;21.162;2022-10-16T08:20:39;16.17;;;9.77;;
44885;SDS011;36669;51.428;21.162;2022-10-16T08:23:05;19.90;;;9.45;;
44885;SDS011;36669;51.428;21.162;2022-10-16T08:25:31;12.00;;;9.15;;
44885;SDS011;36669;51.428;21.162;2022-10-16T08:28:00;16.35;;;11.30;;
44885;SDS011;36669;51.428;21.162;2022-10-16T08:30:25;13.13;;;8.60;;
44885;SDS011;36669;51.428;21.162;2022-10-16T08:32:51;14.75;;;8.85;;
44885;SDS011;36669;51.428;21.162;2022-10-16T08:35:16;13.50;;;9.02;;
44885;SDS011;36669;51.428;21.162;2022-10-16T08:37:42;14.80;;;8.60;;
44885;SDS011;36669;51.428;21.162;2022-10-16T08:40:16;13.38;;;8.88;;
44885;SDS011;36669;51.428;21.162;2022-10-16T08:50:42;15.52;;;8.23;;
44885;SDS011;36669;51.428;21.162;2022-10-16T08:53:10;12.90;;;9.20;;
44885;SDS011;36669;51.428;21.162;2022-10-16T08:55:53;15.65;;;8.45;;
44885;SDS011;36669;51.428;21.162;2022-10-16T08:58:20;11.48;;;8.35;;
44885;SDS011;36669;51.428;21.162;2022-10-16T09:00:48;16.50;;;8.68;;
44885;SDS011;36669;51.428;21.162;2022-10-16T09:03:35;13.95;;;8.75;;
44885;SDS011;36669;51.428;21.162;2022-10-16T09:06:15;16.98;;;8.02;;
44885;SDS011;36669;51.428;21.162;2022-10-16T09:20:19;12.45;;;8.35;;
44885;SDS011;36669;51.428;21.162;2022-10-16T09:25:29;17.00;;;8.27;;
44885;SDS011;36669;51.428;21.162;2022-10-16T09:27:56;18.58;;;8.90;;
44885;SDS011;36669;51.428;21.162;2022-10-16T09:30:21;13.05;;;7.53;;
44885;SDS011;36669;51.428;21.162;2022-10-16T09:32:52;17.30;;;9.88;;
44885;SDS011;36669;51.428;21.162;2022-10-16T09:35:20;10.88;;;7.40;;
44885;SDS011;36669;51.428;21.162;2022-10-16T09:37:50;13.48;;;7.43;;
44885;SDS011;36669;51.428;21.162;2022-10-16T09:40:26;12.02;;;7.63;;
44885;SDS011;36669;51.428;21.162;2022-10-16T09:42:57;10.50;;;7.82;;
44885;SDS011;36669;51.428;21.162;2022-10-16T09:45:31;10.40;;;7.65;;
44885;SDS011;36669;51.428;21.162;2022-10-16T09:48:00;12.93;;;7.70;;
44885;SDS011;36669;51.428;21.162;2022-10-16T09:50:34;11.38;;;7.22;;
44885;SDS011;36669;51.428;21.162;2022-10-16T09:53:04;9.82;;;7.18;;
44885;SDS011;36669;51.428;21.162;2022-10-16T09:55:30;14.75;;;8.35;;
44885;SDS011;36669;51.428;21.162;2022-10-16T09:57:56;11.52;;;7.55;;
44885;SDS011;36669;51.428;21.162;2022-10-16T10:00:23;11.13;;;7.18;;
44885;SDS011;36669;51.428;21.162;2022-10-16T10:02:49;8.90;;;6.68;;
44885;SDS011;36669;51.428;21.162;2022-10-16T10:07:53;11.95;;;7.10;;
44885;SDS011;36669;51.428;21.162;2022-10-16T10:10:30;9.27;;;6.90;;
44885;SDS011;36669;51.428;21.162;2022-10-16T10:12:57;12.27;;;6.97;;
44885;SDS011;36669;51.428;21.162;2022-10-16T10:15:24;10.80;;;6.93;;
44885;SDS011;36669;51.428;21.162;2022-10-16T10:17:56;10.98;;;6.57;;
44885;SDS011;36669;51.428;21.162;2022-10-16T10:20:29;9.80;;;6.15;;
44885;SDS011;36669;51.428;21.162;2022-10-16T10:23:00;8.45;;;6.65;;
44885;SDS011;36669;51.428;21.162;2022-10-16T10:28:09;13.23;;;7.18;;
44885;SDS011;36669;51.428;21.162;2022-10-16T10:33:25;9.05;;;6.18;;
44885;SDS011;36669;51.428;21.162;2022-10-16T10:41:33;11.60;;;6.50;;
44885;SDS011;36669;51.428;21.162;2022-10-16T10:50:07;8.52;;;6.35;;
44885;SDS011;36669;51.428;21.162;2022-10-16T10:52:41;10.02;;;7.18;;
44885;SDS011;36669;51.428;21.162;2022-10-16T10:55:33;10.35;;;6.47;;
44885;SDS011;36669;51.428;21.162;2022-10-16T11:03:46;10.73;;;6.70;;
44885;SDS011;36669;51.428;21.162;2022-10-16T11:07:13;14.23;;;6.65;;
44885;SDS011;36669;51.428;21.162;2022-10-16T11:09:43;10.77;;;6.47;;
44885;SDS011;36669;51.428;21.162;2022-10-16T11:15:02;10.45;;;6.25;;
44885;SDS011;36669;51.428;21.162;2022-10-16T11:20:34;8.65;;;6.40;;
44885;SDS011;36669;51.428;21.162;2022-10-16T11:23:10;10.40;;;5.68;;
44885;SDS011;36669;51.428;21.162;2022-10-16T11:25:48;7.43;;;5.57;;
44885;SDS011;36669;51.428;21.162;2022-10-16T11:28:16;9.02;;;6.22;;
44885;SDS011;36669;51.428;21.162;2022-10-16T11:31:02;7.55;;;6.00;;
44885;SDS011;36669;51.428;21.162;2022-10-16T11:36:32;7.10;;;5.50;;
44885;SDS011;36669;51.428;21.162;2022-10-16T11:45:03;7.53;;;5.18;;
44885;SDS011;36669;51.428;21.162;2022-10-16T11:48:15;5.75;;;4.82;;
44885;SDS011;36669;51.428;21.162;2022-10-16T11:51:22;7.57;;;4.95;;
44885;SDS011;36669;51.428;21.162;2022-10-16T11:54:02;10.13;;;5.33;;
44885;SDS011;36669;51.428;21.162;2022-10-16T11:56:49;8.90;;;5.13;;
44885;SDS011;36669;51.428;21.162;2022-10-16T11:59:26;8.98;;;5.32;;
44885;SDS011;36669;51.428;21.162;2022-10-16T12:02:19;6.97;;;5.45;;
44885;SDS011;36669;51.428;21.162;2022-10-16T12:07:48;7.45;;;4.93;;
44885;SDS011;36669;51.428;21.162;2022-10-16T12:10:27;8.15;;;5.07;;
44885;SDS011;36669;51.428;21.162;2022-10-16T12:12:54;6.07;;;5.18;;
44885;SDS011;36669;51.428;21.162;2022-10-16T12:17:47;8.05;;;5.22;;
44885;SDS011;36669;51.428;21.162;2022-10-16T12:20:19;8.05;;;5.32;;
44885;SDS011;36669;51.428;21.162;2022-10-16T12:22:50;10.73;;;5.82;;
44885;SDS011;36669;51.428;21.162;2022-10-16T12:25:19;10.20;;;5.95;;
44885;SDS011;36669;51.428;21.162;2022-10-16T12:28:03;6.20;;;4.95;;
44885;SDS011;36669;51.428;21.162;2022-10-16T12:30:32;9.40;;;5.15;;
44885;SDS011;36669;51.428;21.162;2022-10-16T12:33:01;8.15;;;5.13;;
44885;SDS011;36669;51.428;21.162;2022-10-16T12:35:43;11.27;;;5.68;;
44885;SDS011;36669;51.428;21.162;2022-10-16T12:40:46;6.90;;;5.80;;
44885;SDS011;36669;51.428;21.162;2022-10-16T12:45:45;8.13;;;5.50;;
44885;SDS011;36669;51.428;21.162;2022-10-16T12:48:18;9.65;;;5.35;;
44885;SDS011;36669;51.428;21.162;2022-10-16T12:50:47;7.10;;;5.88;;
44885;SDS011;36669;51.428;21.162;2022-10-16T12:53:26;8.02;;;5.53;;
44885;SDS011;36669;51.428;21.162;2022-10-16T12:56:16;7.53;;;5.50;;
44885;SDS011;36669;51.428;21.162;2022-10-16T12:59:09;11.98;;;5.93;;
44885;SDS011;36669;51.428;21.162;2022-10-16T13:02:14;8.50;;;5.65;;
44885;SDS011;36669;51.428;21.162;2022-10-16T13:07:35;7.15;;;5.60;;
44885;SDS011;36669;51.428;21.162;2022-10-16T13:10:31;10.00;;;5.47;;
44885;SDS011;36669;51.428;21.162;2022-10-16T13:21:50;9.77;;;5.35;;
44885;SDS011;36669;51.428;21.162;2022-10-16T13:27:50;10.02;;;6.15;;
44885;SDS011;36669;51.428;21.162;2022-10-16T13:30:21;7.07;;;5.43;;
44885;SDS011;36669;51.428;21.162;2022-10-16T13:32:52;9.25;;;5.93;;
44885;SDS011;36669;51.428;21.162;2022-10-16T13:35:29;9.20;;;6.40;;
44885;SDS011;36669;51.428;21.162;2022-10-16T13:38:04;7.70;;;5.63;;
44885;SDS011;36669;51.428;21.162;2022-10-16T13:40:29;9.98;;;6.25;;
44885;SDS011;36669;51.428;21.162;2022-10-16T13:42:56;8.27;;;5.88;;
44885;SDS011;36669;51.428;21.162;2022-10-16T13:45:25;9.75;;;6.30;;
44885;SDS011;36669;51.428;21.162;2022-10-16T13:48:04;11.38;;;5.53;;
44885;SDS011;36669;51.428;21.162;2022-10-16T13:50:30;13.57;;;6.60;;
44885;SDS011;36669;51.428;21.162;2022-10-16T13:53:06;9.95;;;6.22;;
44885;SDS011;36669;51.428;21.162;2022-10-16T13:55:35;11.38;;;6.95;;
44885;SDS011;36669;51.428;21.162;2022-10-16T13:58:05;12.40;;;6.68;;
44885;SDS011;36669;51.428;21.162;2022-10-16T14:00:32;11.68;;;6.22;;
44885;SDS011;36669;51.428;21.162;2022-10-16T14:03:00;14.77;;;7.25;;
44885;SDS011;36669;51.428;21.162;2022-10-16T14:05:29;9.20;;;6.28;;
44885;SDS011;36669;51.428;21.162;2022-10-16T14:07:54;10.93;;;6.80;;
44885;SDS011;36669;51.428;21.162;2022-10-16T14:10:25;13.98;;;6.88;;
44885;SDS011;36669;51.428;21.162;2022-10-16T14:12:56;10.25;;;6.45;;
44885;SDS011;36669;51.428;21.162;2022-10-16T14:15:22;13.85;;;7.50;;
44885;SDS011;36669;51.428;21.162;2022-10-16T14:17:50;11.15;;;7.00;;
44885;SDS011;36669;51.428;21.162;2022-10-16T14:20:16;10.57;;;7.13;;
44885;SDS011;36669;51.428;21.162;2022-10-16T14:22:42;11.40;;;6.65;;
44885;SDS011;36669;51.428;21.162;2022-10-16T14:27:56;7.90;;;6.28;;
44885;SDS011;36669;51.428;21.162;2022-10-16T14:30:25;11.85;;;7.05;;
44885;SDS011;36669;51.428;21.162;2022-10-16T14:32:59;11.45;;;7.63;;
44885;SDS011;36669;51.428;21.162;2022-10-16T14:35:31;11.77;;;6.70;;
44885;SDS011;36669;51.428;21.162;2022-10-16T14:37:57;10.63;;;7.18;;
44885;SDS011;36669;51.428;21.162;2022-10-16T14:40:25;11.25;;;7.00;;
44885;SDS011;36669;51.428;21.162;2022-10-16T14:42:53;12.07;;;6.88;;
44885;SDS011;36669;51.428;21.162;2022-10-16T14:45:28;12.65;;;6.88;;
44885;SDS011;36669;51.428;21.162;2022-10-16T14:48:00;14.10;;;7.32;;
44885;SDS011;36669;51.428;21.162;2022-10-16T14:50:29;13.25;;;7.80;;
44885;SDS011;36669;51.428;21.162;2022-10-16T14:52:55;10.13;;;7.03;;
44885;SDS011;36669;51.428;21.162;2022-10-16T14:55:20;11.50;;;6.88;;
44885;SDS011;36669;51.428;21.162;2022-10-16T14:57:46;12.10;;;7.03;;
44885;SDS011;36669;51.428;21.162;2022-10-16T15:00:16;9.63;;;6.82;;
44885;SDS011;36669;51.428;21.162;2022-10-16T15:02:45;10.57;;;7.32;;
44885;SDS011;36669;51.428;21.162;2022-10-16T15:05:18;10.38;;;6.55;;
44885;SDS011;36669;51.428;21.162;2022-10-16T15:07:46;9.38;;;6.63;;
44885;SDS011;36669;51.428;21.162;2022-10-16T15:10:12;14.57;;;7.53;;
44885;SDS011;36669;51.428;21.162;2022-10-16T15:12:38;9.80;;;6.90;;
44885;SDS011;36669;51.428;21.162;2022-10-16T15:17:52;15.02;;;7.28;;
44885;SDS011;36669;51.428;21.162;2022-10-16T15:20:19;18.33;;;8.50;;
44885;SDS011;36669;51.428;21.162;2022-10-16T15:22:45;12.38;;;7.50;;
44885;SDS011;36669;51.428;21.162;2022-10-16T15:25:34;11.07;;;7.78;;
44885;SDS011;36669;51.428;21.162;2022-10-16T15:28:00;14.13;;;7.80;;
44885;SDS011;36669;51.428;21.162;2022-10-16T15:30:27;12.45;;;8.05;;
44885;SDS011;36669;51.428;21.162;2022-10-16T15:32:54;13.13;;;8.02;;
44885;SDS011;36669;51.428;21.162;2022-10-16T15:35:20;10.50;;;7.63;;
44885;SDS011;36669;51.428;21.162;2022-10-16T15:37:46;13.98;;;7.35;;
44885;SDS011;36669;51.428;21.162;2022-10-16T15:40:12;15.40;;;8.07;;
44885;SDS011;36669;51.428;21.162;2022-10-16T15:42:38;14.10;;;8.18;;
44885;SDS011;36669;51.428;21.162;2022-10-16T15:45:03;10.73;;;7.72;;
44885;SDS011;36669;51.428;21.162;2022-10-16T15:47:29;16.95;;;7.63;;
44885;SDS011;36669;51.428;21.162;2022-10-16T15:49:55;12.88;;;8.38;;
44885;SDS011;36669;51.428;21.162;2022-10-16T15:52:20;13.35;;;8.45;;
44885;SDS011;36669;51.428;21.162;2022-10-16T15:54:46;12.85;;;8.05;;
44885;SDS011;36669;51.428;21.162;2022-10-16T15:57:11;12.45;;;7.90;;
44885;SDS011;36669;51.428;21.162;2022-10-16T15:59:38;17.40;;;8.88;;
44885;SDS011;36669;51.428;21.162;2022-10-16T16:02:03;13.05;;;8.57;;
44885;SDS011;36669;51.428;21.162;2022-10-16T16:04:29;15.55;;;9.23;;
44885;SDS011;36669;51.428;21.162;2022-10-16T16:06:55;13.95;;;7.95;;
44885;SDS011;36669;51.428;21.162;2022-10-16T16:09:20;15.10;;;8.98;;
44885;SDS011;36669;51.428;21.162;2022-10-16T16:11:46;14.55;;;9.00;;
44885;SDS011;36669;51.428;21.162;2022-10-16T16:14:12;16.52;;;9.32;;
44885;SDS011;36669;51.428;21.162;2022-10-16T16:16:38;16.05;;;8.90;;
44885;SDS011;36669;51.428;21.162;2022-10-16T16:19:04;17.98;;;8.73;;